createdAt,value
2022-10-30T00:01:10.367Z,154.27
2022-10-30T00:03:37.485Z,149.82
2022-10-30T00:06:06.382Z,153.27
2022-10-30T00:08:33.948Z,140.07
2022-10-30T00:11:09.105Z,128.27
2022-10-30T00:13:36.763Z,106.88
2022-10-30T00:16:07.036Z,99.53
2022-10-30T00:18:39.295Z,77.93
2022-10-30T00:21:12.034Z,76.57
2022-10-30T00:23:40.918Z,72.63
2022-10-30T00:26:08.519Z,74.25
2022-10-30T00:28:35.682Z,66.13
2022-10-30T00:31:04.305Z,65.63
2022-10-30T00:33:31.980Z,58.25
2022-10-30T00:35:59.853Z,66.55
2022-10-30T00:38:27.017Z,59.30
2022-10-30T00:40:54.442Z,51.92
2022-10-30T00:43:35.502Z,55.38
2022-10-30T00:46:27.127Z,43.90
2022-10-30T00:49:03.012Z,41.88
2022-10-30T00:51:31.867Z,39.10
2022-10-30T00:54:03.137Z,41.20
2022-10-30T00:56:31.510Z,42.97
2022-10-30T00:59:07.734Z,44.40
2022-10-30T01:01:38.718Z,39.08
2022-10-30T01:04:07.372Z,34.78
2022-10-30T01:06:38.874Z,30.58
2022-10-30T01:09:06.077Z,29.60
2022-10-30T01:11:34.557Z,31.90
2022-10-30T01:14:06.013Z,31.80
2022-10-30T01:17:00.240Z,27.42
2022-10-30T01:19:44.267Z,27.13
2022-10-30T01:22:11.345Z,28.08
2022-10-30T01:24:50.605Z,29.73
2022-10-30T01:27:49.675Z,23.77
2022-10-30T01:30:31.900Z,23.70
2022-10-30T01:33:32.285Z,19.50
2022-10-30T01:36:13.710Z,20.83
2022-10-30T01:38:51.913Z,23.45
2022-10-30T01:41:19.177Z,32.58
2022-10-30T01:43:50.926Z,27.02
2022-10-30T01:46:41.808Z,29.88
2022-10-30T01:49:38.282Z,32.17
2022-10-30T01:52:33.172Z,27.25
2022-10-30T01:55:21.716Z,27.55
2022-10-30T01:58:03.614Z,30.17
2022-10-30T02:00:31.510Z,27.73
2022-10-30T02:02:58.955Z,30.65
2022-10-30T02:05:38.956Z,26.05
2022-10-30T02:08:06.370Z,27.92
2022-10-30T02:10:38.163Z,25.70
2022-10-30T02:13:05.319Z,29.00
2022-10-30T02:15:33.214Z,30.08
2022-10-30T02:18:01.243Z,23.30
2022-10-30T02:20:29.266Z,24.40
2022-10-30T02:22:59.248Z,28.65
2022-10-30T02:25:31.190Z,24.90
2022-10-30T02:27:59.201Z,25.80
2022-10-30T02:30:28.528Z,27.23
2022-10-30T02:32:56.204Z,26.52
2022-10-30T02:35:23.619Z,22.63
2022-10-30T02:37:52.838Z,26.13
2022-10-30T02:40:19.972Z,27.63
2022-10-30T02:42:56.215Z,24.50
2022-10-30T02:45:23.373Z,23.05
2022-10-30T02:47:50.565Z,23.67
2022-10-30T02:50:17.729Z,22.17
2022-10-30T02:52:44.900Z,25.55
2022-10-30T02:55:12.521Z,21.95
2022-10-30T02:57:41.330Z,26.70
2022-10-30T03:00:09.221Z,25.52
2022-10-30T03:02:36.515Z,28.05
2022-10-30T03:05:04.955Z,30.02
2022-10-30T03:07:32.302Z,26.75
2022-10-30T03:09:59.467Z,33.47
2022-10-30T03:12:26.623Z,24.95
2022-10-30T03:14:53.727Z,25.63
2022-10-30T03:17:20.845Z,26.90
2022-10-30T03:19:49.547Z,33.38
2022-10-30T03:22:16.700Z,26.02
2022-10-30T03:24:43.836Z,25.60
2022-10-30T03:27:10.966Z,29.33
2022-10-30T03:29:40.272Z,25.10
2022-10-30T03:32:11.250Z,21.75
2022-10-30T03:34:46.014Z,28.15
2022-10-30T03:37:13.156Z,20.92
2022-10-30T03:39:40.278Z,18.55
2022-10-30T03:42:08.238Z,22.30
2022-10-30T03:44:35.386Z,19.25
2022-10-30T03:47:03.686Z,19.92
2022-10-30T03:49:35.107Z,18.73
2022-10-30T03:52:07.145Z,15.73
2022-10-30T03:54:34.288Z,17.13
2022-10-30T03:57:01.389Z,14.82
2022-10-30T03:59:35.122Z,15.38
2022-10-30T04:02:22.167Z,17.50
2022-10-30T04:04:49.436Z,16.25
2022-10-30T04:07:16.628Z,20.33
2022-10-30T04:09:43.809Z,15.40
2022-10-30T04:12:11.053Z,18.67
2022-10-30T04:14:38.288Z,16.90
2022-10-30T04:17:06.282Z,19.02
2022-10-30T04:19:33.432Z,19.35
2022-10-30T04:22:00.556Z,14.32
2022-10-30T04:24:27.661Z,12.82
2022-10-30T04:26:56.585Z,17.70
2022-10-30T04:29:23.749Z,15.68
2022-10-30T04:31:50.920Z,14.05
2022-10-30T04:34:18.426Z,15.13
2022-10-30T04:36:45.600Z,16.85
2022-10-30T04:39:12.761Z,17.88
2022-10-30T04:41:41.910Z,18.67
2022-10-30T04:44:16.293Z,16.85
2022-10-30T04:46:43.547Z,15.15
2022-10-30T04:49:11.430Z,14.93
2022-10-30T04:51:38.594Z,12.27
2022-10-30T04:54:07.673Z,16.27
2022-10-30T04:56:37.214Z,17.10
2022-10-30T04:59:04.683Z,12.32
2022-10-30T05:01:32.260Z,13.10
2022-10-30T05:03:59.814Z,14.98
2022-10-30T05:06:30.521Z,14.07
2022-10-30T05:08:59.083Z,17.65
2022-10-30T05:11:32.272Z,11.05
2022-10-30T05:13:59.596Z,11.13
2022-10-30T05:16:26.751Z,11.65
2022-10-30T05:18:55.495Z,10.05
2022-10-30T05:21:22.639Z,11.73
2022-10-30T05:23:49.924Z,12.63
2022-10-30T05:26:17.765Z,9.55
2022-10-30T05:28:44.937Z,8.63
2022-10-30T05:31:12.075Z,10.18
2022-10-30T05:34:11.525Z,9.45
2022-10-30T05:36:40.333Z,8.57
2022-10-30T05:39:08.933Z,10.38
2022-10-30T05:41:40.671Z,11.15
2022-10-30T05:44:08.008Z,9.07
2022-10-30T05:46:35.233Z,9.50
2022-10-30T05:49:22.563Z,11.88
2022-10-30T05:51:49.753Z,8.95
2022-10-30T05:54:17.452Z,8.23
2022-10-30T05:56:58.296Z,9.30
2022-10-30T05:59:25.564Z,8.25
2022-10-30T06:01:52.686Z,7.75
2022-10-30T06:04:19.927Z,7.30
2022-10-30T06:06:48.195Z,9.85
2022-10-30T06:09:15.337Z,6.55
2022-10-30T06:11:55.587Z,9.18
2022-10-30T06:14:33.669Z,7.70
2022-10-30T06:17:00.767Z,10.38
2022-10-30T06:19:33.545Z,8.07
2022-10-30T06:22:29.603Z,9.25
2022-10-30T06:25:04.701Z,6.85
2022-10-30T06:28:02.002Z,7.30
2022-10-30T06:30:31.385Z,9.20
2022-10-30T06:33:03.661Z,10.40
2022-10-30T06:35:32.326Z,10.45
2022-10-30T06:38:03.576Z,7.50
2022-10-30T06:40:32.064Z,8.68
2022-10-30T06:43:11.508Z,11.50
2022-10-30T06:45:53.604Z,12.68
2022-10-30T06:48:20.760Z,9.32
2022-10-30T06:50:57.302Z,11.95
2022-10-30T06:53:25.946Z,12.13
2022-10-30T06:55:58.969Z,17.63
2022-10-30T06:58:44.693Z,10.68
2022-10-30T07:01:30.412Z,9.57
2022-10-30T07:04:11.377Z,12.38
2022-10-30T07:06:38.516Z,8.75
2022-10-30T07:09:05.696Z,6.95
2022-10-30T07:11:33.216Z,10.73
2022-10-30T07:14:04.689Z,6.70
2022-10-30T07:16:47.282Z,7.47
2022-10-30T07:19:14.416Z,7.95
2022-10-30T07:21:41.712Z,9.48
2022-10-30T07:24:08.925Z,8.88
2022-10-30T07:26:45.650Z,6.93
2022-10-30T07:29:29.884Z,8.38
2022-10-30T07:32:13.973Z,5.78
2022-10-30T07:35:04.377Z,9.05
2022-10-30T07:37:47.966Z,8.82
2022-10-30T07:40:17.001Z,11.10
2022-10-30T07:42:48.880Z,8.02
2022-10-30T07:45:34.754Z,10.02
2022-10-30T07:48:34.201Z,8.75
2022-10-30T07:51:27.453Z,10.27
2022-10-30T07:53:55.604Z,6.93
2022-10-30T07:56:24.529Z,10.43
2022-10-30T07:59:10.375Z,7.85
2022-10-30T08:02:15.540Z,9.95
2022-10-30T08:05:04.190Z,11.45
2022-10-30T08:07:46.498Z,9.02
2022-10-30T08:10:14.249Z,10.65
2022-10-30T08:12:43.898Z,7.20
2022-10-30T08:15:12.373Z,9.40
2022-10-30T08:17:44.759Z,9.02
2022-10-30T08:20:13.854Z,14.55
2022-10-30T08:23:08.645Z,11.40
2022-10-30T08:25:35.842Z,13.85
2022-10-30T08:28:07.264Z,11.05
2022-10-30T08:30:38.522Z,12.25
2022-10-30T08:33:13.512Z,16.95
2022-10-30T08:36:00.782Z,14.75
2022-10-30T08:38:29.197Z,11.75
2022-10-30T08:41:28.613Z,17.55
2022-10-30T08:43:55.936Z,14.90
2022-10-30T08:46:26.970Z,17.15
2022-10-30T08:48:55.527Z,17.88
2022-10-30T08:51:23.473Z,20.42
2022-10-30T08:53:51.015Z,16.95
2022-10-30T08:56:20.523Z,15.55
2022-10-30T08:59:10.525Z,18.05
2022-10-30T09:01:38.002Z,17.88
2022-10-30T09:04:37.291Z,16.45
2022-10-30T09:07:23.069Z,20.80
2022-10-30T09:10:13.685Z,20.30
2022-10-30T09:12:42.195Z,20.10
2022-10-30T09:15:09.515Z,22.10
2022-10-30T09:17:56.387Z,22.20
2022-10-30T09:20:24.295Z,20.90
2022-10-30T09:22:51.661Z,21.85
2022-10-30T09:25:19.677Z,18.85
2022-10-30T09:27:50.094Z,23.17
2022-10-30T09:30:18.402Z,20.35
2022-10-30T09:33:00.635Z,21.00
2022-10-30T09:35:46.551Z,21.98
2022-10-30T09:38:14.723Z,18.20
2022-10-30T09:40:53.570Z,26.92
2022-10-30T09:43:51.237Z,20.65
2022-10-30T09:46:37.074Z,20.30
2022-10-30T09:49:13.424Z,24.95
2022-10-30T09:52:02.091Z,23.25
2022-10-30T09:54:41.702Z,19.45
2022-10-30T09:57:35.670Z,26.23
2022-10-30T10:03:00.945Z,20.60
2022-10-30T10:05:51.650Z,25.55
2022-10-30T10:08:39.468Z,23.10
2022-10-30T10:11:40.521Z,23.33
2022-10-30T10:14:16.501Z,20.98
2022-10-30T10:16:45.480Z,24.63
2022-10-30T10:19:50.232Z,29.92
2022-10-30T10:22:17.258Z,27.67
2022-10-30T10:24:47.465Z,23.85
2022-10-30T10:27:39.450Z,21.45
2022-10-30T10:30:20.149Z,28.80
2022-10-30T10:32:57.591Z,26.23
2022-10-30T10:35:39.758Z,29.65
2022-10-30T10:38:26.018Z,25.17
2022-10-30T10:40:53.090Z,24.02
2022-10-30T10:43:35.164Z,23.33
2022-10-30T10:46:24.138Z,26.70
2022-10-30T10:49:40.259Z,23.08
2022-10-30T10:52:17.477Z,24.23
2022-10-30T10:54:59.320Z,24.88
2022-10-30T10:57:32.472Z,27.55
2022-10-30T11:00:28.149Z,24.00
2022-10-30T11:03:10.194Z,27.58
2022-10-30T11:05:51.175Z,23.23
2022-10-30T11:08:25.233Z,26.77
2022-10-30T11:11:00.594Z,27.02
2022-10-30T11:13:31.008Z,24.98
2022-10-30T11:16:17.217Z,24.95
2022-10-30T11:18:47.426Z,19.50
2022-10-30T11:21:23.824Z,28.33
2022-10-30T11:23:51.830Z,21.67
2022-10-30T11:26:18.914Z,26.00
2022-10-30T11:28:50.048Z,20.00
2022-10-30T11:31:21.750Z,24.15
2022-10-30T11:33:49.790Z,23.08
2022-10-30T11:36:20.022Z,21.65
2022-10-30T11:38:47.113Z,24.25
2022-10-30T11:41:14.737Z,21.50
2022-10-30T11:43:43.205Z,22.70
2022-10-30T11:46:15.646Z,24.67
2022-10-30T11:48:44.677Z,22.25
2022-10-30T11:51:13.265Z,25.85
2022-10-30T11:53:48.580Z,25.13
2022-10-30T11:56:23.445Z,22.60
2022-10-30T11:58:54.100Z,21.40
2022-10-30T12:01:24.966Z,20.48
2022-10-30T12:03:54.472Z,18.38
2022-10-30T12:06:25.141Z,19.55
2022-10-30T12:08:59.309Z,21.75
2022-10-30T12:11:34.656Z,16.08
2022-10-30T12:14:02.458Z,18.15
2022-10-30T12:16:30.246Z,13.85
2022-10-30T12:19:00.851Z,24.38
2022-10-30T12:21:37.945Z,19.15
2022-10-30T12:24:09.413Z,16.13
2022-10-30T12:26:39.164Z,18.00
2022-10-30T12:29:12.739Z,20.23
2022-10-30T12:31:49.033Z,17.73
2022-10-30T12:34:35.002Z,14.05
2022-10-30T12:37:12.032Z,14.60
2022-10-30T12:39:44.785Z,16.17
2022-10-30T12:42:16.129Z,12.48
2022-10-30T12:44:51.809Z,18.02
2022-10-30T12:47:29.381Z,13.35
2022-10-30T12:52:47.172Z,13.57
2022-10-30T12:55:17.262Z,11.35
2022-10-30T12:58:21.915Z,15.23
2022-10-30T13:01:01.368Z,11.85
2022-10-30T13:03:37.303Z,17.05
2022-10-30T13:06:16.474Z,19.58
2022-10-30T13:09:02.092Z,16.92
2022-10-30T13:11:40.145Z,13.55
2022-10-30T13:14:16.161Z,14.45
2022-10-30T13:16:43.286Z,20.23
2022-10-30T13:19:13.051Z,11.57
2022-10-30T13:21:52.252Z,11.93
2022-10-30T13:24:36.802Z,12.45
2022-10-30T13:27:19.642Z,13.18
2022-10-30T13:29:57.160Z,12.25
2022-10-30T13:32:26.915Z,12.10
2022-10-30T13:35:15.817Z,11.52
2022-10-30T13:37:53.843Z,10.52
2022-10-30T13:40:42.516Z,12.57
2022-10-30T13:43:30.956Z,14.05
2022-10-30T13:46:27.727Z,16.52
2022-10-30T13:49:45.362Z,11.82
2022-10-30T13:52:20.243Z,12.32
2022-10-30T13:55:13.583Z,13.20
2022-10-30T13:58:00.169Z,8.85
2022-10-30T14:00:51.057Z,9.40
2022-10-30T14:03:42.728Z,15.25
2022-10-30T14:06:46.953Z,13.07
2022-10-30T14:09:35.272Z,10.45
2022-10-30T14:12:39.593Z,10.18
2022-10-30T14:15:18.704Z,9.70
2022-10-30T14:18:13.539Z,11.43
2022-10-30T14:20:52.016Z,7.30
2022-10-30T14:23:32.385Z,14.45
2022-10-30T14:26:02.945Z,11.43
2022-10-30T14:28:35.751Z,7.30
2022-10-30T14:31:05.530Z,9.32
2022-10-30T14:33:44.712Z,11.30
2022-10-30T14:36:19.231Z,10.45
2022-10-30T14:39:28.370Z,36.70
2022-10-30T14:42:28.137Z,8.35
2022-10-30T14:45:05.108Z,9.60
2022-10-30T14:47:52.128Z,10.68
2022-10-30T14:50:28.230Z,8.18
2022-10-30T14:53:19.968Z,11.20
2022-10-30T14:55:55.724Z,12.20
2022-10-30T14:58:29.083Z,8.23
2022-10-30T15:01:33.678Z,9.80
2022-10-30T15:04:06.465Z,10.32
2022-10-30T15:06:49.834Z,11.98
2022-10-30T15:12:12.554Z,9.43
2022-10-30T15:14:54.088Z,9.35
2022-10-30T15:17:41.708Z,12.23
2022-10-30T15:20:17.161Z,8.95
2022-10-30T15:22:46.950Z,7.68
2022-10-30T15:25:23.088Z,11.80
2022-10-30T15:27:56.937Z,9.00
2022-10-30T15:30:26.788Z,10.57
2022-10-30T15:32:53.968Z,10.10
2022-10-30T15:35:28.472Z,10.60
2022-10-30T15:38:04.809Z,9.82
2022-10-30T15:40:34.258Z,8.65
2022-10-30T15:43:05.295Z,9.50
2022-10-30T15:45:38.223Z,6.05
2022-10-30T15:48:20.218Z,14.25
2022-10-30T15:50:58.051Z,10.93
2022-10-30T15:53:32.996Z,8.90
2022-10-30T15:56:00.440Z,11.07
2022-10-30T15:58:27.713Z,9.80
2022-10-30T16:01:00.554Z,13.88
2022-10-30T16:03:29.229Z,7.72
2022-10-30T16:06:17.410Z,9.25
2022-10-30T16:08:47.669Z,8.63
2022-10-30T16:11:15.678Z,7.65
2022-10-30T16:13:43.042Z,9.60
2022-10-30T16:16:20.022Z,11.65
2022-10-30T16:18:47.806Z,11.00
2022-10-30T16:21:18.216Z,10.50
2022-10-30T16:23:54.161Z,11.07
2022-10-30T16:26:35.530Z,12.32
2022-10-30T16:29:18.356Z,10.07
2022-10-30T16:31:49.958Z,8.00
2022-10-30T16:34:25.432Z,9.40
2022-10-30T16:36:53.932Z,11.27
2022-10-30T16:39:21.758Z,11.15
2022-10-30T16:41:49.107Z,11.70
2022-10-30T16:44:27.032Z,10.18
2022-10-30T16:47:20.714Z,9.35
2022-10-30T16:49:51.855Z,13.10
2022-10-30T16:52:23.937Z,11.43
2022-10-30T16:55:01.336Z,10.38
2022-10-30T16:57:40.835Z,11.75
2022-10-30T17:00:21.241Z,14.95
2022-10-30T17:02:52.321Z,18.10
2022-10-30T17:05:28.587Z,11.82
2022-10-30T17:08:01.490Z,14.90
2022-10-30T17:13:29.709Z,11.82
2022-10-30T17:15:58.049Z,12.35
2022-10-30T17:18:32.509Z,15.02
2022-10-30T17:21:07.905Z,26.00
2022-10-30T17:23:35.778Z,31.63
2022-10-30T17:26:10.481Z,23.27
2022-10-30T17:28:39.393Z,20.90
2022-10-30T17:31:41.692Z,29.67
2022-10-30T17:34:13.468Z,21.65
2022-10-30T17:36:40.730Z,21.98
2022-10-30T17:39:08.340Z,21.95
2022-10-30T17:41:36.035Z,23.27
2022-10-30T17:44:05.099Z,20.33
2022-10-30T17:46:32.545Z,20.58
2022-10-30T17:49:00.398Z,21.88
2022-10-30T17:51:29.165Z,22.42
2022-10-30T17:53:56.302Z,30.05
2022-10-30T17:56:28.308Z,27.90
2022-10-30T17:58:55.542Z,27.48
2022-10-30T18:01:25.265Z,34.58
2022-10-30T18:03:57.823Z,25.55
2022-10-30T18:06:27.524Z,24.88
2022-10-30T18:08:55.182Z,20.83
2022-10-30T18:11:24.814Z,29.67
2022-10-30T18:13:52.610Z,24.13
2022-10-30T18:16:20.571Z,31.63
2022-10-30T18:18:47.892Z,29.13
2022-10-30T18:21:19.732Z,28.58
2022-10-30T18:23:52.227Z,24.90
2022-10-30T18:26:25.246Z,32.15
2022-10-30T18:28:52.654Z,27.80
2022-10-30T18:31:22.746Z,40.03
2022-10-30T18:33:50.124Z,43.80
2022-10-30T18:36:20.383Z,32.53
2022-10-30T18:38:47.866Z,36.25
2022-10-30T18:41:21.268Z,40.95
2022-10-30T18:43:48.929Z,44.90
2022-10-30T18:46:16.955Z,52.92
2022-10-30T18:48:45.354Z,35.30
2022-10-30T18:51:22.018Z,36.45
2022-10-30T18:53:52.515Z,42.85
2022-10-30T18:56:21.931Z,42.38
2022-10-30T18:58:49.762Z,38.88
2022-10-30T19:01:18.046Z,44.53
2022-10-30T19:03:46.111Z,38.58
2022-10-30T19:06:15.456Z,39.92
2022-10-30T19:08:42.537Z,37.38
2022-10-30T19:11:17.574Z,30.33
2022-10-30T19:13:47.589Z,36.78
2022-10-30T19:16:18.387Z,36.42
2022-10-30T19:18:46.179Z,40.30
2022-10-30T19:21:25.463Z,40.03
2022-10-30T19:23:54.533Z,30.50
2022-10-30T19:26:21.628Z,28.55
2022-10-30T19:28:48.758Z,27.70
2022-10-30T19:31:18.330Z,29.20
2022-10-30T19:33:46.562Z,27.92
2022-10-30T19:36:35.687Z,25.08
2022-10-30T19:39:13.877Z,24.75
2022-10-30T19:41:41.337Z,21.50
2022-10-30T19:44:09.244Z,27.38
2022-10-30T19:46:37.311Z,28.60
2022-10-30T19:49:17.917Z,31.15
2022-10-30T19:51:45.328Z,24.58
2022-10-30T19:54:12.677Z,33.22
2022-10-30T19:56:42.135Z,24.20
2022-10-30T19:59:14.335Z,27.08
2022-10-30T20:01:42.097Z,29.17
2022-10-30T20:04:09.345Z,29.42
2022-10-30T20:06:36.445Z,28.63
2022-10-30T20:09:05.377Z,28.48
2022-10-30T20:11:32.689Z,27.77
2022-10-30T20:13:59.846Z,26.60
2022-10-30T20:16:26.978Z,25.55
2022-10-30T20:18:54.090Z,26.38
2022-10-30T20:21:21.263Z,22.27
2022-10-30T20:23:48.421Z,22.55
2022-10-30T20:26:29.532Z,24.92
2022-10-30T20:28:57.296Z,24.50
2022-10-30T20:31:25.096Z,26.70
2022-10-30T20:33:52.216Z,30.45
2022-10-30T20:36:19.308Z,28.23
2022-10-30T20:38:46.493Z,33.38
2022-10-30T20:41:27.404Z,27.20
2022-10-30T20:43:54.583Z,28.77
2022-10-30T20:46:22.008Z,27.95
2022-10-30T20:48:49.145Z,25.08
2022-10-30T20:51:16.301Z,25.23
2022-10-30T20:53:43.476Z,26.17
2022-10-30T20:56:11.568Z,29.15
2022-10-30T20:58:39.089Z,25.67
2022-10-30T21:01:06.465Z,25.10
2022-10-30T21:03:33.730Z,29.40
2022-10-30T21:06:01.847Z,24.10
2022-10-30T21:08:33.753Z,27.00
2022-10-30T21:11:02.769Z,24.25
2022-10-30T21:13:33.005Z,22.73
2022-10-30T21:16:01.625Z,24.92
2022-10-30T21:18:28.770Z,21.00
2022-10-30T21:21:03.545Z,23.00
2022-10-30T21:23:30.857Z,19.20
2022-10-30T21:26:05.585Z,24.75
2022-10-30T21:28:33.265Z,26.55
2022-10-30T21:31:08.220Z,24.02
2022-10-30T21:33:36.619Z,24.63
2022-10-30T21:36:12.333Z,22.90
2022-10-30T21:38:44.514Z,18.50
2022-10-30T21:41:14.513Z,25.33
2022-10-30T21:43:42.251Z,24.75
2022-10-30T21:46:12.190Z,20.42
2022-10-30T21:48:39.789Z,20.90
2022-10-30T21:51:12.692Z,22.05
2022-10-30T21:53:40.412Z,29.42
2022-10-30T21:56:10.863Z,30.33
2022-10-30T21:58:38.121Z,27.33
2022-10-30T22:01:06.648Z,22.27
2022-10-30T22:03:34.346Z,21.40
2022-10-30T22:06:06.019Z,22.60
2022-10-30T22:08:33.606Z,25.77
2022-10-30T22:11:06.120Z,23.67
2022-10-30T22:13:33.685Z,30.58
2022-10-30T22:16:01.096Z,23.77
2022-10-30T22:18:28.655Z,24.13
2022-10-30T22:21:01.172Z,29.80
2022-10-30T22:23:29.680Z,23.63
2022-10-30T22:25:59.810Z,27.15
2022-10-30T22:28:29.071Z,26.48
2022-10-30T22:31:10.931Z,24.23
2022-10-30T22:33:38.650Z,22.58
2022-10-30T22:36:09.272Z,29.25
2022-10-30T22:38:36.410Z,24.45
2022-10-30T22:41:21.313Z,22.35
2022-10-30T22:43:49.035Z,22.48
2022-10-30T22:46:18.375Z,21.65
2022-10-30T22:48:45.982Z,26.60
2022-10-30T22:51:16.648Z,25.13
2022-10-30T22:53:46.320Z,19.95
2022-10-30T22:56:20.905Z,26.00
2022-10-30T22:58:49.539Z,24.48
2022-10-30T23:01:23.473Z,22.00
2022-10-30T23:03:52.127Z,20.13
2022-10-30T23:06:19.851Z,23.63
2022-10-30T23:08:47.137Z,23.23
2022-10-30T23:11:15.273Z,23.02
2022-10-30T23:13:42.863Z,23.35
2022-10-30T23:16:13.555Z,26.33
2022-10-30T23:18:41.480Z,20.83
2022-10-30T23:21:17.667Z,26.00
2022-10-30T23:23:45.369Z,23.15
2022-10-30T23:26:32.596Z,25.00
2022-10-30T23:29:00.546Z,24.92
2022-10-30T23:31:33.979Z,21.10
2022-10-30T23:34:05.101Z,21.45
2022-10-30T23:36:32.631Z,24.65
2022-10-30T23:39:01.713Z,23.10
2022-10-30T23:41:31.273Z,21.52
2022-10-30T23:44:00.613Z,18.10
2022-10-30T23:46:28.733Z,18.98
2022-10-30T23:48:55.957Z,20.98
2022-10-30T23:51:23.595Z,22.00
2022-10-30T23:53:50.776Z,22.88
2022-10-30T23:56:18.409Z,25.95
2022-10-30T23:58:46.878Z,17.98
